Time;durP1;ratioP1;P1;durP2;ratioP2;P2;SDS_P1;SDS_P2;PMS_P1;PMS_P2;Temp;Humidity;BMP_temperature;BMP_pressure;BME280_temperature;BME280_humidity;BME280_pressure;Samples;Min_cycle;Max_cycle;Signal;HPM_P1;HPM_P2
2021/04/01 00:00:47;;;;;;;76.67;30.68;;;;;;;11.36;59.35;100865.52;1734566;81;26088;-63
2021/04/01 00:03:15;;;;;;;70.03;32.00;;;;;;;11.31;59.44;100859.01;1724218;81;25794;-63
2021/04/01 00:05:44;;;;;;;68.28;29.15;;;;;;;11.25;59.56;100859.27;1735608;81;27456;-63
2021/04/01 00:08:12;;;;;;;82.40;30.88;;;;;;;11.21;59.71;100852.29;1739797;81;25849;-64
2021/04/01 00:10:44;;;;;;;75.92;31.68;;;;;;;11.18;59.78;100851.08;1726461;82;25960;-64
2021/04/01 00:13:12;;;;;;;76.92;32.45;;;;;;;11.13;59.89;100846.38;1735114;81;26194;-64
2021/04/01 00:15:41;;;;;;;74.42;29.98;;;;;;;11.09;60.04;100842.55;1735475;81;25926;-64
2021/04/01 00:18:16;;;;;;;74.37;30.85;;;;;;;11.03;60.11;100841.00;1733410;81;28445;-63
2021/04/01 00:20:44;;;;;;;80.95;32.42;;;;;;;10.99;60.23;100836.70;1735522;81;26026;-63
2021/04/01 00:23:13;;;;;;;74.55;28.95;;;;;;;10.90;60.27;100835.74;1735601;81;25931;-64
2021/04/01 00:25:41;;;;;;;68.95;28.62;;;;;;;10.83;60.39;100833.78;1720547;81;25853;-63
2021/04/01 00:28:09;;;;;;;66.02;27.87;;;;;;;10.76;60.49;100827.39;1730542;81;26026;-63
2021/04/01 00:30:37;;;;;;;66.25;28.55;;;;;;;10.72;60.65;100827.52;1735340;81;27403;-63
2021/04/01 00:33:05;;;;;;;65.50;29.42;;;;;;;10.68;60.72;100824.56;1735208;81;25864;-63
2021/04/01 00:35:33;;;;;;;67.05;26.37;;;;;;;10.64;60.86;100824.75;1735898;81;25722;-63
2021/04/01 00:38:00;;;;;;;73.47;27.73;;;;;;;10.59;60.97;100819.57;1735502;81;26596;-63
2021/04/01 00:40:28;;;;;;;67.50;28.00;;;;;;;10.55;61.05;100818.42;1718689;81;25887;-63
2021/04/01 00:42:56;;;;;;;63.85;27.32;;;;;;;10.51;61.16;100815.45;1727627;81;27817;-63
2021/04/01 00:45:24;;;;;;;68.25;27.65;;;;;;;10.47;61.25;100812.03;1732983;81;25761;-63
2021/04/01 00:47:54;;;;;;;59.65;26.87;;;;;;;10.43;61.34;100803.70;1733221;81;25942;-63
2021/04/01 00:50:30;;;;;;;67.35;26.80;;;;;;;10.38;61.45;100807.95;1733867;81;25823;-63
2021/04/01 00:52:59;;;;;;;62.05;26.40;;;;;;;10.35;61.55;100803.17;1733235;81;26507;-63
2021/04/01 00:55:27;;;;;;;74.50;27.75;;;;;;;10.30;61.64;100806.03;1735492;81;27353;-63
2021/04/01 00:58:00;;;;;;;74.92;26.80;;;;;;;10.27;61.73;100798.59;1735196;80;26019;-63
2021/04/01 01:00:31;;;;;;;61.00;26.10;;;;;;;10.23;61.79;100798.30;1734892;81;25781;-63
2021/04/01 01:02:58;;;;;;;71.87;29.75;;;;;;;10.18;61.90;100796.23;1714350;81;25898;-63
2021/04/01 01:05:28;;;;;;;67.67;28.25;;;;;;;10.13;62.01;100790.19;1692635;82;25802;-63
2021/04/01 01:07:57;;;;;;;72.75;28.95;;;;;;;10.10;62.11;100787.16;1729044;81;27379;-63
2021/04/01 01:10:29;;;;;;;62.78;27.58;;;;;;;10.07;62.18;100791.30;1725854;82;25881;-63
2021/04/01 01:12:59;;;;;;;59.42;27.15;;;;;;;10.04;62.26;100787.40;1732733;81;25874;-63
2021/04/01 01:15:28;;;;;;;67.95;27.80;;;;;;;9.99;62.34;100782.22;1735496;81;26067;-63
2021/04/01 01:17:57;;;;;;;67.70;29.23;;;;;;;9.95;62.44;100781.94;1735458;81;25896;-63
2021/04/01 01:20:27;;;;;;;74.77;28.92;;;;;;;9.93;62.54;100772.21;1732271;81;27447;-63
2021/04/01 01:22:56;;;;;;;72.90;29.17;;;;;;;9.89;62.62;100770.13;1732749;81;25930;-63
2021/04/01 01:25:24;;;;;;;66.35;28.40;;;;;;;9.89;62.76;100774.60;1734097;81;26155;-63
2021/04/01 01:27:52;;;;;;;73.83;28.52;;;;;;;9.88;62.84;100769.72;1729698;81;26407;-63
2021/04/01 01:30:21;;;;;;;60.90;28.83;;;;;;;9.86;62.89;100765.35;1735684;81;26563;-63
2021/04/01 01:32:57;;;;;;;72.40;28.32;;;;;;;9.83;62.97;100767.67;1717725;81;27962;-63
2021/04/01 01:35:24;;;;;;;70.78;28.90;;;;;;;9.80;63.05;100766.45;1734584;81;25809;-63
2021/04/01 01:37:58;;;;;;;76.10;29.65;;;;;;;9.76;63.11;100756.80;1729453;81;25934;-63
2021/04/01 01:40:28;;;;;;;64.05;28.42;;;;;;;9.73;63.22;100768.50;1735387;81;25862;-63
2021/04/01 01:43:04;;;;;;;69.45;28.32;;;;;;;9.69;63.30;100763.31;1733128;81;25919;-63
2021/04/01 01:45:32;;;;;;;70.32;28.02;;;;;;;9.64;63.36;100766.16;1734527;81;27536;-63
2021/04/01 01:48:01;;;;;;;70.03;29.50;;;;;;;9.61;63.46;100763.60;1733488;81;26463;-63
2021/04/01 01:50:32;;;;;;;68.45;31.55;;;;;;;9.60;63.57;100756.97;1735254;81;25840;-63
2021/04/01 01:53:00;;;;;;;;;;;;;;;9.57;63.65;100753.94;1737972;81;26584;-63
2021/04/01 01:55:30;;;;;;;66.50;27.93;;;;;;;9.57;63.94;100747.72;1735645;81;25920;-63
2021/04/01 01:57:58;;;;;;;77.75;28.73;;;;;;;9.55;63.85;100747.78;1726457;82;27369;-63
2021/04/01 02:00:34;;;;;;;72.75;29.57;;;;;;;9.56;63.90;100740.62;1722157;82;26129;-63
2021/04/01 02:03:05;;;;;;;71.15;31.17;;;;;;;9.56;63.94;100742.83;1724926;82;25820;-63
2021/04/01 02:05:35;;;;;;;70.08;31.33;;;;;;;9.53;63.98;100735.38;1725205;82;26148;-63
2021/04/01 02:08:05;;;;;;;81.17;29.95;;;;;;;9.51;64.07;100733.23;1725223;82;25965;-63
2021/04/01 02:10:38;;;;;;;78.25;30.97;;;;;;;9.47;63.95;100738.29;1717631;81;26153;-63
2021/04/01 02:13:07;;;;;;;79.15;30.48;;;;;;;9.33;64.05;100737.00;1718897;81;25904;-63
2021/04/01 02:15:41;;;;;;;69.70;30.48;;;;;;;9.29;64.20;100736.70;1706109;82;25960;-63
2021/04/01 02:18:19;;;;;;;75.15;32.03;;;;;;;9.24;64.31;100735.13;1725229;82;26160;-63
2021/04/01 02:20:50;;;;;;;65.20;31.00;;;;;;;9.21;64.45;100726.75;1696008;82;25776;-63
2021/04/01 02:23:21;;;;;;;;;;;;;;;9.21;64.53;100717.85;1728112;82;27564;-63
2021/04/01 02:25:51;;;;;;;68.62;29.57;;;;;;;9.22;64.82;100718.26;1723946;82;25943;-63
2021/04/01 02:28:21;;;;;;;75.65;31.25;;;;;;;9.19;64.65;100717.03;1725515;82;25887;-63
2021/04/01 02:30:53;;;;;;;74.20;30.02;;;;;;;9.16;64.69;100714.00;1724849;82;26125;-63
2021/04/01 02:33:26;;;;;;;72.15;30.50;;;;;;;9.15;64.76;100710.92;1717071;82;25841;-63
2021/04/01 02:35:55;;;;;;;76.05;31.52;;;;;;;9.15;64.86;100710.92;1716316;82;27346;-63
2021/04/01 02:38:24;;;;;;;78.50;32.53;;;;;;;9.14;64.89;100708.30;1718119;82;26508;-63
2021/04/01 02:40:53;;;;;;;79.15;29.37;;;;;;;9.12;64.95;100704.35;1727396;82;25747;-63
2021/04/01 02:43:32;;;;;;;75.47;31.17;;;;;;;9.10;64.98;100711.55;1720105;81;25819;-63
2021/04/01 02:45:57;;;;;;;72.32;29.80;;;;;;;9.05;65.03;100700.16;1725306;82;25770;-63
2021/04/01 02:48:26;;;;;;;69.70;30.10;;;;;;;9.02;65.10;100704.27;1725289;81;27949;-63
2021/04/01 02:50:54;;;;;;;69.75;28.70;;;;;;;8.98;65.08;100710.66;1724083;81;25818;-63
2021/04/01 02:53:22;;;;;;;77.08;31.17;;;;;;;8.91;65.20;100703.32;1725689;82;25806;-63
2021/04/01 02:55:50;;;;;;;71.17;28.90;;;;;;;8.88;65.32;100702.09;1725088;82;26243;-63
2021/04/01 02:58:18;;;;;;;82.78;32.05;;;;;;;8.86;65.41;100699.06;1700109;83;25858;-63
2021/04/01 03:00:46;;;;;;;72.40;34.13;;;;;;;8.85;65.51;100697.32;1690709;82;27997;-63
2021/04/01 03:05:43;;;;;;;86.20;40.70;;;;;;;8.83;65.68;100694.70;1688534;82;25845;-63
2021/04/01 03:08:11;;;;;;;92.57;39.78;;;;;;;8.84;65.75;100695.58;1698901;81;26541;-63
2021/04/01 03:10:39;;;;;;;83.52;38.48;;;;;;;8.84;65.78;100696.91;1695639;82;25858;-63
2021/04/01 03:13:08;;;;;;;102.87;43.10;;;;;;;8.83;65.86;100696.03;1684764;82;27967;-63
2021/04/01 03:15:35;;;;;;;99.47;44.33;;;;;;;8.82;65.91;100696.09;1688802;83;26339;-63
2021/04/01 03:18:05;;;;;;;112.68;47.85;;;;;;;8.81;66.00;100694.34;1692548;81;25918;-64
2021/04/01 03:20:33;;;;;;;117.97;50.03;;;;;;;8.78;66.10;100680.63;1692221;82;26642;-64
2021/04/01 03:23:00;;;;;;;111.22;50.78;;;;;;;8.79;66.20;100681.91;1696239;81;25908;-63
2021/04/01 03:25:28;;;;;;;118.93;52.10;;;;;;;8.81;66.34;100675.17;1693953;83;28378;-63
2021/04/01 03:27:56;;;;;;;116.08;48.70;;;;;;;8.86;66.43;100680.36;1691746;82;25869;-63
2021/04/01 03:30:24;;;;;;;107.00;47.60;;;;;;;8.90;66.46;100672.63;1692064;83;26227;-63
2021/04/01 03:32:52;;;;;;;102.58;47.30;;;;;;;8.93;66.44;100672.52;1685264;82;25836;-63
2021/04/01 03:35:23;;;;;;;119.10;50.15;;;;;;;8.91;66.51;100671.70;1693993;83;26649;-63
2021/04/01 03:37:55;;;;;;;97.10;46.23;;;;;;;8.91;66.57;100664.56;1690836;82;27480;-63
2021/04/01 03:40:23;;;;;;;113.85;50.45;;;;;;;8.91;66.62;100657.00;1697789;83;25837;-63
2021/04/01 03:42:51;;;;;;;110.25;48.40;;;;;;;8.91;66.65;100658.34;1689666;82;25935;-63
2021/04/01 03:45:19;;;;;;;121.82;49.70;;;;;;;8.91;66.69;100655.67;1696771;82;26223;-63
2021/04/01 03:47:47;;;;;;;107.97;48.75;;;;;;;8.90;66.75;100648.58;1691385;82;25915;-63
2021/04/01 03:50:15;;;;;;;105.32;49.03;;;;;;;8.90;66.82;100652.59;1697507;82;27788;-62
2021/04/01 03:52:43;;;;;;;113.40;48.08;;;;;;;8.88;66.87;100653.98;1691329;82;25404;-62
2021/04/01 03:55:36;;;;;;;110.52;48.92;;;;;;;8.87;66.88;100652.23;1692372;83;25692;-62
2021/04/01 03:58:05;;;;;;;106.75;48.83;;;;;;;8.87;66.91;100656.70;1697373;80;26421;-62
2021/04/01 04:00:32;;;;;;;118.25;52.67;;;;;;;8.84;66.98;100644.80;1733451;81;25846;-63
2021/04/01 04:03:07;;;;;;;126.40;55.83;;;;;;;8.81;67.01;100637.76;1733807;79;27612;-63
2021/04/01 04:08:07;;;;;;;117.67;50.93;;;;;;;8.83;67.13;100641.70;1735349;81;25900;-63
2021/04/01 04:13:29;;;;;;;113.97;49.98;;;;;;;8.87;67.31;100641.55;1738512;80;25757;-63
2021/04/01 04:15:44;;;;;;;115.92;50.52;;;;;;;8.93;67.40;100640.45;1718938;80;27927;-63
2021/04/01 04:18:13;;;;;;;109.57;47.40;;;;;;;8.95;67.39;100641.27;1722825;81;25768;-62
2021/04/01 04:20:41;;;;;;;114.67;49.60;;;;;;;8.96;67.32;100633.19;1691913;81;26621;-62
2021/04/01 04:23:12;;;;;;;105.00;48.33;;;;;;;9.01;67.47;100634.36;1736405;81;26219;-63
2021/04/01 04:25:39;;;;;;;110.22;48.02;;;;;;;9.04;67.48;100627.56;1735128;81;25892;-62
2021/04/01 04:30:40;;;;;;;104.47;46.40;;;;;;;9.09;67.50;100628.26;1731902;81;26079;-62
2021/04/01 04:33:09;;;;;;;102.22;48.05;;;;;;;9.09;67.48;100628.26;1736604;79;26070;-63
2021/04/01 04:35:36;;;;;;;115.17;47.75;;;;;;;9.10;67.52;100627.33;1717126;82;25789;-62
2021/04/01 04:38:04;;;;;;;103.97;45.67;;;;;;;9.09;67.53;100618.90;1763847;77;25819;-63
2021/04/01 04:40:32;;;;;;;93.80;46.58;;;;;;;9.08;67.51;100614.48;1780483;77;27826;-62
2021/04/01 04:43:00;;;;;;;102.85;46.10;;;;;;;9.07;67.56;100619.42;1776657;77;26673;-63
2021/04/01 04:45:28;;;;;;;103.80;46.23;;;;;;;9.06;67.59;100619.02;1779181;79;25835;-63
2021/04/01 04:47:55;;;;;;;105.90;46.20;;;;;;;9.07;67.62;100614.07;1774172;78;25710;-63
2021/04/01 04:50:23;;;;;;;107.92;44.40;;;;;;;9.08;67.66;100618.03;1777559;77;25539;-63
2021/04/01 04:52:51;;;;;;;111.00;45.98;;;;;;;9.10;67.69;100612.63;1774581;77;27188;-63
2021/04/01 04:55:19;;;;;;;109.83;50.20;;;;;;;9.13;67.71;100613.84;1778299;77;25739;-63
2021/04/01 04:57:54;;;;;;;223.55;131.18;;;;;;;9.17;67.72;100613.27;1778626;77;26420;-63
2021/04/01 05:05:43;;;;;;;356.13;236.65;;;;;;;9.28;67.71;100599.88;1777685;79;28291;-63
2021/04/01 05:08:11;;;;;;;304.82;194.80;;;;;;;9.32;67.68;100597.96;1779376;77;25894;-63
2021/04/01 05:10:39;;;;;;;294.95;192.40;;;;;;;9.36;67.67;100597.78;1779511;79;25883;-63
2021/04/01 05:13:11;;;;;;;271.93;171.10;;;;;;;9.38;67.65;100596.39;1784114;78;26016;-63
2021/04/01 05:15:50;;;;;;;245.82;144.22;;;;;;;9.41;67.61;100602.48;1779848;79;25772;-63
2021/04/01 05:18:29;;;;;;;264.52;145.57;;;;;;;9.42;67.61;100606.03;1778832;79;27955;-64
2021/04/01 05:20:51;;;;;;;602.13;386.92;;;;;;;9.43;67.62;100597.95;1776034;77;25716;-63
2021/04/01 05:23:27;;;;;;;576.20;370.88;;;;;;;9.48;67.62;100600.45;1778585;78;25793;-63
2021/04/01 05:28:36;;;;;;;348.43;207.35;;;;;;;9.57;67.54;100597.41;1780639;79;25781;-63
2021/04/01 05:31:06;;;;;;;249.95;140.30;;;;;;;9.63;67.54;100590.47;1776721;78;28118;-63
2021/04/01 05:33:35;;;;;;;293.90;162.05;;;;;;;9.64;67.48;100581.97;1769257;78;25788;-63
2021/04/01 05:36:09;;;;;;;234.98;129.23;;;;;;;9.76;67.45;100583.69;1772164;78;26342;-63
2021/04/01 05:38:37;;;;;;;190.60;101.38;;;;;;;9.86;67.36;100594.02;1780461;79;25840;-65
2021/04/01 05:41:10;;;;;;;190.22;99.55;;;;;;;9.94;67.30;100583.86;1776916;77;25832;-64
2021/04/01 05:43:44;;;;;;;148.62;71.67;;;;;;;10.01;67.24;100581.33;1780548;77;27510;-63
2021/04/01 05:46:32;;;;;;;145.87;75.60;;;;;;;10.07;67.18;100580.60;1776194;79;25785;-63
2021/04/01 05:49:14;;;;;;;144.07;69.40;;;;;;;10.16;67.07;100581.15;1774755;78;25878;-64
2021/04/01 05:51:59;;;;;;;96.60;44.95;;;;;;;10.20;66.97;100576.97;1777194;77;26107;-64
2021/04/01 05:57:55;;;;;;;92.35;42.67;;;;;;;10.31;66.80;100574.70;1786091;77;27750;-63
2021/04/01 06:00:00;;;;;;;77.80;37.75;;;;;;;10.38;66.68;100568.14;1746165;78;26098;-64
2021/04/01 06:02:29;;;;;;;81.50;36.25;;;;;;;10.46;66.56;100565.55;1765319;79;25888;-64
2021/04/01 06:04:57;;;;;;;71.25;34.43;;;;;;;10.53;66.45;100567.89;1778021;77;26441;-64
2021/04/01 06:07:31;;;;;;;81.53;35.55;;;;;;;10.61;66.33;100572.92;1774749;79;26592;-64
2021/04/01 06:10:00;;;;;;;70.00;33.98;;;;;;;10.67;66.17;100571.30;1775131;78;28350;-64
2021/04/01 06:12:32;;;;;;;82.50;35.70;;;;;;;10.73;66.02;100566.53;1774716;79;26036;-65
2021/04/01 06:15:09;;;;;;;75.32;32.78;;;;;;;10.81;65.87;100563.98;1779508;77;26526;-65
2021/04/01 06:17:35;;;;;;;83.37;31.95;;;;;;;10.88;65.72;100557.39;1724418;81;26355;-65
2021/04/01 06:20:09;;;;;;;71.30;32.38;;;;;;;10.98;65.72;100550.66;1723900;81;25738;-65
2021/04/01 06:22:41;;;;;;;79.90;36.00;;;;;;;11.08;65.53;100554.66;1724770;81;27368;-64
2021/04/01 06:25:15;;;;;;;81.40;35.78;;;;;;;11.17;65.38;100558.25;1722446;80;25780;-64
2021/04/01 06:27:52;;;;;;;79.60;36.35;;;;;;;11.26;65.27;100565.00;1723401;81;25823;-64
2021/04/01 06:30:25;;;;;;;88.65;35.78;;;;;;;11.35;65.14;100569.92;1720661;81;25840;-64
2021/04/01 06:33:08;;;;;;;81.25;33.45;;;;;;;11.42;65.00;100559.30;1721258;80;25877;-64
2021/04/01 06:35:54;;;;;;;90.05;33.70;;;;;;;11.50;64.85;100562.95;1738721;80;26843;-64
2021/04/01 06:38:20;;;;;;;51.80;25.75;;;;;;;11.27;64.71;100517.97;1710436;81;26762;-63
2021/04/01 06:40:58;;;;;;;79.67;29.67;;;;;;;11.64;64.57;100578.78;1723988;80;25970;-64
2021/04/01 06:43:53;;;;;;;68.45;27.40;;;;;;;11.73;64.35;100569.88;1722279;81;26518;-64
2021/04/01 06:46:26;;;;;;;55.15;26.15;;;;;;;11.81;64.02;100563.22;1664226;81;25960;-64
2021/04/01 06:54:33;;;;;;;;;;;;;;;11.98;63.39;100563.72;1659591;81;25829;-64
2021/04/01 06:57:27;;;;;;;;;;;;;;;12.01;63.13;100560.41;1724471;81;26470;-64
2021/04/01 07:00:34;;;;;;;72.50;29.00;;;;;;;12.07;62.94;100560.57;1720909;80;25796;-63
2021/04/01 07:03:12;;;;;;;54.13;25.55;;;;;;;12.15;62.80;100554.80;1737470;79;28539;-64
2021/04/01 07:05:49;;;;;;;129.68;31.48;;;;;;;12.25;62.68;100551.56;1725811;81;25850;-64
2021/04/01 07:08:25;;;;;;;68.47;26.80;;;;;;;12.37;62.49;100547.84;1741102;81;26671;-64
2021/04/01 07:10:58;;;;;;;63.05;27.80;;;;;;;12.46;62.20;100556.78;1690639;81;26263;-64
2021/04/01 07:13:35;;;;;;;59.63;28.40;;;;;;;12.53;61.92;100555.50;1726167;81;25776;-64
2021/04/01 07:16:32;;;;;;;59.33;26.97;;;;;;;12.60;61.73;100547.03;1702344;80;27987;-64
2021/04/01 07:19:01;;;;;;;65.92;29.00;;;;;;;12.66;61.58;100539.98;1720100;80;26507;-65
2021/04/01 07:46:33;;;;;;;59.73;26.20;;;;;;;14.03;59.38;100507.06;1708256;80;25866;-61
2021/04/01 07:49:09;;;;;;;66.07;26.60;;;;;;;14.19;59.08;100507.02;1743455;79;25902;-66
2021/04/01 07:54:11;;;;;;;51.33;24.50;;;;;;;14.44;58.48;100505.94;1741622;79;30958;-64
2021/04/01 07:56:46;;;;;;;64.62;24.77;;;;;;;14.53;58.23;100510.77;1734598;80;28028;-65
2021/04/01 08:04:29;;;;;;;56.28;22.32;;;;;;;14.84;57.24;100512.91;1737995;80;25540;-63
2021/04/01 08:07:15;;;;;;;46.73;23.67;;;;;;;14.94;57.04;100508.17;1735421;79;25778;-66
2021/04/01 08:09:50;;;;;;;48.80;22.95;;;;;;;15.07;56.85;100505.56;1736016;80;27292;-65
2021/04/01 08:12:32;;;;;;;47.40;22.73;;;;;;;15.21;56.36;100508.23;1739795;80;25865;-64
2021/04/01 08:15:14;;;;;;;53.70;21.85;;;;;;;15.35;56.11;100503.30;1734805;79;26317;-62
2021/04/01 08:17:53;;;;;;;62.80;23.40;;;;;;;15.47;55.81;100503.84;1760019;79;25855;-65
2021/04/01 08:20:26;;;;;;;44.60;19.95;;;;;;;15.62;55.18;100507.84;1719888;80;25892;-62
2021/04/01 08:23:16;;;;;;;44.50;22.00;;;;;;;15.72;54.15;100509.83;1735192;79;27738;-64
2021/04/01 08:28:39;;;;;;;56.77;21.07;;;;;;;15.93;52.14;100510.23;1735890;80;26019;-64
2021/04/01 08:31:38;;;;;;;37.08;16.37;;;;;;;15.94;52.31;100508.39;1736585;79;25836;-63
2021/04/01 08:33:58;;;;;;;45.20;20.70;;;;;;;15.91;50.62;100510.81;1730288;80;25784;-65
2021/04/01 08:36:28;;;;;;;39.05;18.87;;;;;;;15.91;50.93;100510.33;1732177;80;27274;-63
2021/04/01 08:38:55;;;;;;;46.53;19.85;;;;;;;15.91;49.12;100521.14;1739413;79;35009;-65
2021/04/01 08:41:57;;;;;;;45.35;19.60;;;;;;;15.88;49.57;100521.35;1738801;80;25927;-65
2021/04/01 08:45:12;;;;;;;44.38;20.02;;;;;;;15.96;49.95;100515.91;1711500;81;26356;-62
2021/04/01 08:47:52;;;;;;;39.45;18.92;;;;;;;16.10;50.31;100509.95;1707662;81;26846;-62
2021/04/01 08:50:27;;;;;;;45.58;20.72;;;;;;;16.24;50.08;100521.17;1718616;81;27822;-62
2021/04/01 08:53:30;;;;;;;51.33;20.25;;;;;;;16.31;49.70;100521.13;1720341;80;26301;-63
2021/04/01 08:56:23;;;;;;;39.60;20.10;;;;;;;16.34;48.77;100521.41;1725708;80;25882;-62
2021/04/01 08:59:23;;;;;;;46.23;19.85;;;;;;;16.36;49.57;100509.99;1721865;80;26091;-63
2021/04/01 09:01:55;;;;;;;44.42;19.20;;;;;;;16.39;49.42;100513.35;1737047;79;25864;-64
2021/04/01 09:04:26;;;;;;;43.52;18.90;;;;;;;16.40;49.24;100505.62;1694368;81;27904;-63
2021/04/01 09:07:10;;;;;;;38.90;17.90;;;;;;;16.44;48.93;100507.62;1749984;79;25750;-63
2021/04/01 09:09:40;;;;;;;43.73;19.12;;;;;;;16.50;48.94;100501.78;1732861;81;26367;-63
2021/04/01 09:12:33;;;;;;;48.10;19.87;;;;;;;16.59;48.94;100498.91;1691599;81;26078;-63
2021/04/01 09:15:07;;;;;;;45.88;18.05;;;;;;;16.67;48.91;100505.55;1692101;81;25800;-63
2021/04/01 09:17:37;;;;;;;45.33;18.98;;;;;;;16.76;48.10;100501.33;1736084;81;27549;-63
2021/04/01 09:20:18;;;;;;;42.55;20.25;;;;;;;16.86;48.23;100501.91;1703204;81;26597;-63
2021/04/01 09:22:56;;;;;;;38.10;17.30;;;;;;;17.01;47.81;100506.71;1719802;80;25920;-64
2021/04/01 09:25:40;;;;;;;42.58;18.90;;;;;;;17.17;47.85;100507.82;1743265;80;26256;-63
2021/04/01 09:28:10;;;;;;;38.33;18.05;;;;;;;17.33;47.78;100504.85;1740677;79;26178;-63
2021/04/01 09:30:39;;;;;;;37.33;16.40;;;;;;;17.48;46.95;100507.30;1740495;79;27737;-64
2021/04/01 09:33:11;;;;;;;39.90;17.23;;;;;;;17.63;46.17;100509.36;1739034;79;25753;-63
2021/04/01 09:35:39;;;;;;;45.75;17.80;;;;;;;17.79;46.53;100506.39;1727955;81;25731;-63
2021/04/01 09:38:11;;;;;;;48.52;16.80;;;;;;;17.93;45.02;100507.56;1705625;81;26225;-64
2021/04/01 09:40:43;;;;;;;92.35;20.55;;;;;;;18.02;41.18;100517.72;1734781;80;26487;-63
2021/04/01 09:43:21;;;;;;;51.33;16.90;;;;;;;17.93;40.07;100518.91;1709840;81;27439;-63
2021/04/01 09:45:55;;;;;;;46.80;17.02;;;;;;;17.86;40.45;100527.12;1707968;81;25940;-63
2021/04/01 09:48:31;;;;;;;42.03;18.12;;;;;;;17.78;40.69;100529.92;1697285;81;26532;-64
2021/04/01 09:51:00;;;;;;;73.02;19.17;;;;;;;17.80;40.66;100532.03;1709469;81;26246;-63
2021/04/01 09:53:30;;;;;;;50.52;17.05;;;;;;;17.79;41.02;100537.57;1687632;82;26393;-63
2021/04/01 09:55:58;;;;;;;43.40;16.30;;;;;;;17.81;41.02;100540.54;1702787;81;27848;-63
2021/04/01 09:58:40;;;;;;;53.42;16.85;;;;;;;17.83;40.92;100539.94;1698721;79;25757;-63
2021/04/01 10:01:33;;;;;;;56.20;16.20;;;;;;;17.78;40.14;100532.64;1732699;79;25813;-63
2021/04/01 10:04:20;;;;;;;54.83;17.35;;;;;;;17.84;40.88;100543.02;1733696;80;26447;-63
2021/04/01 10:06:50;;;;;;;64.75;15.90;;;;;;;17.82;40.76;100549.05;1772105;77;25868;-63
2021/04/01 10:09:21;;;;;;;144.53;20.55;;;;;;;17.82;40.38;100540.92;1761468;79;27986;-63
2021/04/01 10:12:04;;;;;;;;;;;;;;;17.84;39.62;100552.52;1777793;78;26162;-63
2021/04/01 10:14:33;;;;;;;40.45;16.67;;;;;;;17.73;38.21;100565.14;1775760;78;26043;-64
2021/04/01 10:17:09;;;;;;;41.02;14.65;;;;;;;17.55;39.79;100559.69;1771013;78;26229;-64
2021/04/01 10:19:45;;;;;;;52.10;16.37;;;;;;;17.67;39.66;100565.59;1745894;79;26519;-64
2021/04/01 10:22:28;;;;;;;46.75;15.18;;;;;;;17.69;39.70;100547.38;1777950;78;27495;-64
2021/04/01 10:25:24;;;;;;;39.83;15.90;;;;;;;17.75;39.92;100547.78;1772304;78;26495;-64
2021/04/01 10:28:12;;;;;;;40.25;15.25;;;;;;;17.81;40.35;100563.59;1776138;78;25859;-64
2021/04/01 10:30:37;;;;;;;48.50;16.10;;;;;;;17.84;40.69;100565.20;1798382;77;26722;-63
2021/04/01 10:33:37;;;;;;;49.85;14.25;;;;;;;17.89;39.15;100552.17;1771968;78;25846;-62
2021/04/01 10:36:07;;;;;;;26.45;12.18;;;;;;;17.88;39.49;100553.64;1775020;78;27647;-63
2021/04/01 10:38:36;;;;;;;41.95;13.90;;;;;;;17.78;38.68;100540.77;1772793;78;32407;-63
2021/04/01 10:41:18;;;;;;;35.83;13.85;;;;;;;17.83;39.26;100537.72;1767643;78;25909;-63
2021/04/01 10:43:45;;;;;;;34.25;14.55;;;;;;;17.92;38.71;100550.58;1770064;79;26079;-64
2021/04/01 10:46:20;;;;;;;35.75;13.90;;;;;;;17.75;39.57;100534.72;1772881;79;25827;-63
2021/04/01 10:48:55;;;;;;;30.68;13.53;;;;;;;17.75;39.64;100532.00;1769823;78;27328;-63
2021/04/01 10:51:24;;;;;;;45.83;13.38;;;;;;;17.73;39.98;100528.55;1774585;78;25803;-63
2021/04/01 10:53:52;;;;;;;30.40;13.75;;;;;;;17.73;39.66;100534.83;1775385;78;25934;-63
2021/04/01 10:56:21;;;;;;;44.20;13.95;;;;;;;17.67;39.81;100533.94;1766886;78;26412;-62
2021/04/01 10:58:53;;;;;;;41.13;15.78;;;;;;;17.59;38.81;100539.52;1776377;77;25840;-63
2021/04/01 11:01:25;;;;;;;42.27;14.98;;;;;;;17.47;39.33;100555.70;1784124;79;27931;-63
2021/04/01 11:03:57;;;;;;;40.60;13.98;;;;;;;17.39;39.59;100540.49;1775306;77;25943;-63
2021/04/01 11:06:28;;;;;;;30.52;15.20;;;;;;;17.39;39.52;100542.34;1772239;79;25849;-63
2021/04/01 11:08:59;;;;;;;39.27;13.93;;;;;;;17.39;39.19;100531.50;1780572;77;25818;-64
2021/04/01 11:11:47;;;;;;;27.13;13.48;;;;;;;17.36;39.02;100527.66;1780725;77;25807;-64
2021/04/01 11:14:05;;;;;;;40.40;13.13;;;;;;;17.36;39.15;100522.23;1694255;80;28765;-64
2021/04/01 11:16:38;;;;;;;24.82;11.83;;;;;;;17.41;39.50;100539.89;1770483;79;26197;-65
2021/04/01 11:19:07;;;;;;;25.95;11.40;;;;;;;17.48;39.58;100553.36;1782778;77;25892;-64
2021/04/01 11:21:37;;;;;;;67.62;12.80;;;;;;;17.53;39.07;100559.80;1756858;77;26068;-64
2021/04/01 11:24:06;;;;;;;26.42;11.25;;;;;;;17.48;39.07;100559.27;1781704;77;25859;-64
2021/04/01 11:26:34;;;;;;;28.42;11.00;;;;;;;17.51;39.60;100565.34;1781487;79;27566;-64
2021/04/01 11:29:13;;;;;;;19.67;9.45;;;;;;;17.57;39.74;100559.95;1770623;77;26048;-64
2021/04/01 11:31:42;;;;;;;28.57;9.10;;;;;;;17.67;39.92;100575.95;1776283;77;25732;-64
2021/04/01 11:34:10;;;;;;;23.80;7.15;;;;;;;17.63;40.18;100578.97;1776877;77;25782;-64
2021/04/01 11:36:42;;;;;;;27.87;5.45;;;;;;;17.64;40.66;100586.12;1772692;79;26297;-64
2021/04/01 11:39:35;;;;;;;26.02;5.80;;;;;;;17.58;41.22;100577.08;1771060;79;26563;-64
2021/04/01 11:41:54;;;;;;;23.07;4.97;;;;;;;17.53;41.88;100584.20;1774910;77;25724;-64
2021/04/01 11:44:22;;;;;;;19.82;4.85;;;;;;;17.43;42.25;100594.84;1780177;77;26447;-63
2021/04/01 11:46:50;;;;;;;25.57;6.15;;;;;;;17.37;42.55;100583.09;1784617;77;26047;-64
2021/04/01 11:49:18;;;;;;;20.92;4.40;;;;;;;17.41;42.79;100577.83;1778303;79;25777;-64
2021/04/01 11:51:46;;;;;;;24.82;4.67;;;;;;;17.58;42.69;100572.53;1777048;77;27462;-64
2021/04/01 11:54:24;;;;;;;31.17;6.05;;;;;;;17.58;42.58;100570.30;1776737;79;26325;-64
2021/04/01 11:56:52;;;;;;;22.27;6.25;;;;;;;17.57;42.92;100569.44;1781179;77;26580;-64
2021/04/01 11:59:28;;;;;;;11.85;5.65;;;;;;;17.60;43.02;100571.06;1783106;77;26502;-65
2021/04/01 12:01:53;;;;;;;25.05;6.55;;;;;;;17.72;43.24;100575.12;1788189;77;25708;-65
2021/04/01 12:04:23;;;;;;;;;;;;;;;17.87;43.17;100576.31;1787631;77;27807;-65
2021/04/01 12:06:54;;;;;;;14.33;4.58;;;;;;;17.92;42.42;100586.33;1781737;77;25941;-65
2021/04/01 12:09:22;;;;;;;12.13;4.80;;;;;;;17.77;42.02;100593.27;1777268;77;25800;-63
2021/04/01 12:11:49;;;;;;;40.73;6.72;;;;;;;17.61;41.91;100583.14;1786052;77;25778;-64
2021/04/01 12:14:18;;;;;;;22.50;4.92;;;;;;;17.43;42.06;100582.64;1782739;78;25887;-64
2021/04/01 12:16:46;;;;;;;13.28;4.58;;;;;;;17.29;42.04;100585.98;1783727;77;27332;-63
2021/04/01 12:19:14;;;;;;;18.70;4.60;;;;;;;17.09;42.13;100580.14;1777152;78;26969;-65
2021/04/01 12:21:43;;;;;;;18.23;4.00;;;;;;;16.90;42.51;100579.72;1787782;78;26448;-64
2021/04/01 12:24:11;;;;;;;22.85;4.37;;;;;;;16.93;42.72;100584.91;1757845;77;25964;-65
2021/04/01 12:26:49;;;;;;;13.65;4.22;;;;;;;16.89;42.67;100584.75;1788577;78;25667;-65
2021/04/01 12:29:19;;;;;;;13.38;4.30;;;;;;;16.74;42.45;100585.34;1782996;77;27736;-65
2021/04/01 12:31:55;;;;;;;12.88;4.90;;;;;;;16.58;42.45;100583.28;1784736;77;26075;-64
2021/04/01 12:34:30;;;;;;;9.50;4.37;;;;;;;16.39;42.81;100581.47;1767860;78;25965;-65
2021/04/01 12:37:04;;;;;;;19.77;4.35;;;;;;;16.30;43.17;100573.98;1787826;77;26078;-64
2021/04/01 12:39:35;;;;;;;12.58;3.98;;;;;;;16.28;43.40;100570.03;1786026;77;25852;-65